Portada
METAR-TAF:

METAR-TAF

Aeroports :

Lampang, Tailàndia

latitud: 18-17N, longitud: 099-31E, altitud: 241 m

Observació

L'informe es va fer fa 1 hora i 16 minuts, a les 10:00 UTC
Vent 6 kt del Sud-Est, variant entre Est i Sud
Temperatura 33°C
Humitat 30%
Pressió 1010 hPa
Visibilitat: 9000 m

METAR: VTCL 261000Z 14006KT 100V190 9000 NSC 33/13 Q1010 NOSIG

Hora: 18:16 (11:16 UTC)

Pronòstic

L'informe es va fer fa 6 hores i 16 minuts, a les 05:00 UTC
Pronòstic vàlid del 26 a les 06 UTC al 27 a les 06 UTC
Vent 5 kt del Sud/Sud-Est
Visibilitat: 6000 m
Escasses núvols a una alçada de 2500 ft

TAF: VTCL 260500Z 2606/2706 16005KT 6000 FEW025

Observacions i pronòstics meteorològics de més de 4000 aeroports (METAR i TAF).

Les estacions disponibles són els punts grocs i vermells al mapa.

Posi el ratolí al punt desitjat per veure el nom de l'estació.

Feu clic per veure les observacions i els pronòstics meteorològics.

Per canviar el mapa: feu clic els botons verds amb una creu de color negre per apropar; al botó verd amb un guió per allunyar la imatge; o en les fletxes verdes per a mapes adjacents.


METAR-TAF: